Time;durP1;ratioP1;P1;durP2;ratioP2;P2;SDS_P1;SDS_P2;PMS_P1;PMS_P2;Temp;Humidity;BMP_temperature;BMP_pressure;BME280_temperature;BME280_humidity;BME280_pressure;Samples;Min_cycle;Max_cycle;Signal;HPM_P1;HPM_P2
2023/09/11 00:02:01;;;;;;;15.23;12.52;;;;;;;20.17;71.02;100872.44;5069722;28;20090;-77
2023/09/11 00:04:28;;;;;;;17.85;12.65;;;;;;;20.16;71.46;100878.75;5081037;28;20051;-75
2023/09/11 00:06:56;;;;;;;17.85;12.38;;;;;;;20.14;71.76;100870.06;5066467;28;20536;-76
2023/09/11 00:09:23;;;;;;;17.35;11.88;;;;;;;20.09;72.00;100872.31;5027709;28;20062;-77
2023/09/11 00:11:50;;;;;;;14.35;12.10;;;;;;;20.05;71.50;100876.28;5065041;28;20079;-77
2023/09/11 00:14:18;;;;;;;17.40;11.73;;;;;;;20.03;71.78;100872.88;5040402;28;20136;-75
2023/09/11 00:16:45;;;;;;;18.45;12.40;;;;;;;20.00;72.27;100878.53;5082024;28;20091;-77
2023/09/11 00:19:12;;;;;;;18.75;12.88;;;;;;;19.95;72.81;100873.63;5065237;28;20088;-75
2023/09/11 00:21:40;;;;;;;14.60;12.13;;;;;;;19.92;73.35;100870.41;5081533;28;20058;-75
2023/09/11 00:24:07;;;;;;;18.27;12.05;;;;;;;19.90;73.33;100869.69;5081001;28;20126;-76
2023/09/11 00:26:34;;;;;;;14.90;12.40;;;;;;;19.86;73.56;100869.16;5042513;28;20132;-74
2023/09/11 00:29:02;;;;;;;17.67;12.55;;;;;;;19.84;73.46;100864.94;5063553;28;20130;-78
2023/09/11 00:31:29;;;;;;;15.23;12.32;;;;;;;19.82;74.08;100857.06;5034811;28;20144;-81
2023/09/11 00:33:56;;;;;;;13.52;11.30;;;;;;;19.79;74.28;100857.34;5071562;28;20134;-77
2023/09/11 00:36:24;;;;;;;17.63;12.60;;;;;;;19.76;74.98;100854.97;5070659;28;20142;-75
2023/09/11 00:38:51;;;;;;;15.18;13.07;;;;;;;19.73;74.83;100853.44;5064556;28;20072;-79
2023/09/11 00:41:18;;;;;;;18.23;12.95;;;;;;;19.70;74.88;100856.38;5088283;28;20601;-79
2023/09/11 00:43:46;;;;;;;17.48;12.40;;;;;;;19.70;75.56;100847.53;5064376;28;20052;-77
2023/09/11 00:46:13;;;;;;;18.50;12.80;;;;;;;19.70;75.53;100847.53;5071073;28;20044;-76
2023/09/11 00:48:43;;;;;;;17.67;12.88;;;;;;;19.69;75.70;100849.38;5074954;28;20046;-77
2023/09/11 00:51:10;;;;;;;19.98;13.00;;;;;;;19.66;76.04;100843.47;5055640;28;20143;-80
2023/09/11 00:53:38;;;;;;;21.10;13.07;;;;;;;19.63;75.93;100846.41;5052179;28;20180;-79
2023/09/11 00:56:05;;;;;;;18.33;12.75;;;;;;;19.59;76.84;100842.34;5065180;28;20072;-81
2023/09/11 00:58:32;;;;;;;15.55;12.45;;;;;;;19.55;76.85;100846.28;5047646;28;20182;-75
2023/09/11 01:00:59;;;;;;;17.50;12.10;;;;;;;19.50;77.16;100836.03;5065453;28;20052;-75
2023/09/11 01:03:27;;;;;;;15.43;11.82;;;;;;;19.47;77.74;100836.31;5050625;28;20131;-77
2023/09/11 01:05:55;;;;;;;15.90;11.20;;;;;;;19.42;77.87;100838.56;5049453;28;20056;-78
2023/09/11 01:08:25;;;;;;;15.65;11.85;;;;;;;19.39;78.52;100828.16;5066871;28;20079;-78
2023/09/11 01:10:53;;;;;;;19.40;12.30;;;;;;;19.35;78.49;100826.75;5080474;28;20119;-78
2023/09/11 01:13:21;;;;;;;18.50;13.00;;;;;;;19.32;79.06;100832.38;5067350;28;20060;-77
2023/09/11 01:15:58;;;;;;;16.95;12.05;;;;;;;19.29;79.26;100830.00;5084704;28;20068;-76
2023/09/11 01:18:31;;;;;;;15.30;12.93;;;;;;;19.27;79.59;100823.94;5069620;28;20135;-75
2023/09/11 01:21:24;;;;;;;14.60;11.38;;;;;;;19.22;79.51;100825.22;5070132;28;20081;-75
2023/09/11 01:24:22;;;;;;;14.93;11.90;;;;;;;19.17;79.81;100816.78;5086415;28;20134;-76
2023/09/11 01:27:18;;;;;;;17.65;11.35;;;;;;;19.15;79.73;100820.59;5070971;28;20051;-75
2023/09/11 01:29:45;;;;;;;17.58;13.05;;;;;;;19.12;80.52;100819.03;5080293;28;20048;-75
2023/09/11 01:32:13;;;;;;;16.40;12.80;;;;;;;19.07;80.33;100820.44;5055741;28;20575;-78
2023/09/11 01:34:40;;;;;;;14.82;11.90;;;;;;;19.06;81.01;100813.44;5088005;28;20044;-73
2023/09/11 01:37:08;;;;;;;16.08;12.05;;;;;;;19.03;80.87;100811.88;5055011;28;20098;-73
2023/09/11 01:39:35;;;;;;;16.02;12.32;;;;;;;19.03;81.01;100814.56;5050132;28;20143;-73
2023/09/11 01:42:07;;;;;;;15.77;12.38;;;;;;;19.03;81.55;100809.22;5083482;28;20143;-73
2023/09/11 01:44:40;;;;;;;18.63;12.07;;;;;;;19.00;81.99;100809.47;5064470;28;20048;-73
2023/09/11 01:47:09;;;;;;;19.85;13.38;;;;;;;18.98;82.01;100803.47;5053260;28;20462;-73
2023/09/11 01:49:37;;;;;;;17.30;11.57;;;;;;;18.94;81.85;100802.91;5035237;28;20131;-76
2023/09/11 01:52:07;;;;;;;14.18;12.48;;;;;;;18.93;82.12;100803.03;5054540;28;20052;-74
2023/09/11 01:54:35;;;;;;;14.68;11.77;;;;;;;18.90;82.53;100800.66;5063898;28;20044;-74
2023/09/11 01:57:03;;;;;;;17.25;12.60;;;;;;;18.89;83.04;100797.13;5050320;28;20064;-73
2023/09/11 01:59:31;;;;;;;15.40;12.30;;;;;;;18.87;82.73;100799.13;5050588;28;20139;-76
2023/09/11 02:01:58;;;;;;;13.32;11.85;;;;;;;18.87;82.45;100793.78;5046126;28;20048;-76
2023/09/11 02:04:25;;;;;;;14.73;11.23;;;;;;;18.86;83.09;100792.06;5068635;28;20129;-78
2023/09/11 02:06:54;;;;;;;20.23;13.23;;;;;;;18.84;82.75;100793.22;5063725;28;20060;-78
2023/09/11 02:09:22;;;;;;;19.10;12.63;;;;;;;18.84;82.88;100791.38;5064569;28;20070;-79
2023/09/11 02:11:49;;;;;;;16.90;12.27;;;;;;;18.83;82.67;100789.72;5063630;28;20138;-72
2023/09/11 02:14:16;;;;;;;16.55;12.38;;;;;;;18.83;82.67;100794.19;5065379;28;20064;-72
2023/09/11 02:16:44;;;;;;;13.85;12.35;;;;;;;18.79;83.03;100787.47;5032227;28;20044;-75
2023/09/11 02:19:11;;;;;;;17.67;12.63;;;;;;;18.79;83.73;100792.78;5086421;28;20138;-76
2023/09/11 02:21:38;;;;;;;16.52;12.80;;;;;;;18.76;83.86;100788.56;5065736;28;20185;-78
2023/09/11 02:24:06;;;;;;;16.52;12.88;;;;;;;18.74;83.57;100787.03;5082844;28;20142;-73
2023/09/11 02:26:33;;;;;;;19.15;12.57;;;;;;;18.72;84.32;100787.16;5045161;28;20139;-72
2023/09/11 02:29:00;;;;;;;19.02;12.32;;;;;;;18.70;83.92;100789.13;5055731;28;20147;-73
2023/09/11 02:31:28;;;;;;;24.20;13.05;;;;;;;18.70;84.48;100791.78;5066630;28;20134;-77
2023/09/11 02:33:55;;;;;;;18.40;12.73;;;;;;;18.67;84.68;100784.88;5057822;28;20135;-77
2023/09/11 02:36:22;;;;;;;18.70;12.63;;;;;;;18.65;84.80;100788.69;5056171;28;20143;-78
2023/09/11 02:38:49;;;;;;;13.57;12.02;;;;;;;18.63;85.02;100796.78;5067107;28;20064;-78
2023/09/11 02:41:17;;;;;;;18.50;13.27;;;;;;;18.65;85.03;100796.69;5080092;28;20153;-72
2023/09/11 02:43:44;;;;;;;13.43;11.35;;;;;;;18.63;84.93;100799.47;5069649;28;20052;-74
2023/09/11 02:46:11;;;;;;;17.95;12.50;;;;;;;18.62;84.82;100795.13;5030402;28;20513;-74
2023/09/11 02:48:47;;;;;;;20.02;12.10;;;;;;;18.61;85.06;100795.25;5047220;28;20050;-74
2023/09/11 02:51:17;;;;;;;12.68;11.15;;;;;;;18.58;85.04;100791.03;5051033;28;20064;-75
2023/09/11 02:53:44;;;;;;;17.00;12.50;;;;;;;18.57;85.75;100788.53;5040014;28;20043;-74
2023/09/11 02:56:12;;;;;;;15.65;12.80;;;;;;;18.55;85.33;100786.00;5047110;28;20080;-74
2023/09/11 02:58:39;;;;;;;15.10;12.30;;;;;;;18.54;85.92;100789.63;5032138;28;20052;-74
2023/09/11 03:01:06;;;;;;;19.10;13.98;;;;;;;18.53;85.51;100789.78;5051084;28;20076;-74
2023/09/11 03:03:34;;;;;;;16.98;13.32;;;;;;;18.54;85.34;100792.28;5023958;28;20051;-74
2023/09/11 03:06:02;;;;;;;15.25;13.57;;;;;;;18.54;86.20;100792.28;5060297;28;20075;-75
2023/09/11 03:08:29;;;;;;;16.75;13.13;;;;;;;18.52;85.91;100793.44;5082249;28;20048;-78
2023/09/11 03:11:07;;;;;;;17.67;13.70;;;;;;;18.50;86.39;100793.53;5049246;28;20135;-76
2023/09/11 03:13:35;;;;;;;18.40;13.82;;;;;;;18.48;86.33;100785.69;5045436;28;20052;-76
2023/09/11 03:16:13;;;;;;;16.48;13.63;;;;;;;18.48;86.23;100787.53;5062561;28;20134;-75
2023/09/11 03:18:41;;;;;;;17.05;13.70;;;;;;;18.46;86.28;100784.13;5049699;28;20116;-75
2023/09/11 03:21:09;;;;;;;18.67;13.75;;;;;;;18.44;85.91;100784.28;5066782;28;20044;-75
2023/09/11 03:23:36;;;;;;;14.95;13.32;;;;;;;18.42;86.46;100785.41;5082803;28;20129;-76
2023/09/11 03:26:14;;;;;;;16.80;14.48;;;;;;;18.41;87.22;100778.38;5078493;28;20138;-75
2023/09/11 03:28:45;;;;;;;15.30;13.75;;;;;;;18.41;86.84;100789.03;5046095;28;20080;-70
2023/09/11 03:31:15;;;;;;;22.58;13.38;;;;;;;18.43;87.27;100782.59;5046527;28;20064;-74
2023/09/11 03:33:42;;;;;;;16.80;15.07;;;;;;;18.40;87.13;100785.53;5084175;28;20161;-73
2023/09/11 03:36:16;;;;;;;18.85;13.85;;;;;;;18.38;87.20;100781.34;5065709;28;20132;-74
2023/09/11 03:38:44;;;;;;;15.98;14.27;;;;;;;18.34;87.39;100787.91;5062975;28;21958;-72
2023/09/11 03:41:11;;;;;;;20.17;14.63;;;;;;;18.33;87.55;100783.56;5086031;28;20129;-75
2023/09/11 03:43:39;;;;;;;17.05;14.88;;;;;;;18.31;88.23;100777.50;5059092;28;20090;-73
2023/09/11 03:46:06;;;;;;;16.77;14.07;;;;;;;18.30;87.86;100784.66;5048538;28;20514;-71
2023/09/11 03:48:33;;;;;;;15.85;13.63;;;;;;;18.29;87.40;100776.81;5062553;28;20083;-72
2023/09/11 03:51:01;;;;;;;19.63;15.05;;;;;;;18.28;88.37;100772.44;5049428;28;20123;-71
2023/09/11 03:53:42;;;;;;;18.13;12.80;;;;;;;18.25;88.69;100773.59;5051618;28;20079;-75
2023/09/11 03:56:11;;;;;;;28.48;14.95;;;;;;;18.22;88.43;100772.03;5048878;28;20194;-75
2023/09/11 03:58:39;;;;;;;17.33;13.35;;;;;;;18.22;88.25;100774.69;5067749;28;20048;-73
2023/09/11 04:01:07;;;;;;;20.20;15.00;;;;;;;18.19;88.61;100766.97;5066639;28;20128;-77
2023/09/11 04:03:34;;;;;;;21.50;15.18;;;;;;;18.20;88.58;100766.00;5056654;28;20160;-75
2023/09/11 04:06:02;;;;;;;17.60;14.40;;;;;;;18.19;88.80;100772.31;5064011;28;20044;-75
2023/09/11 04:08:29;;;;;;;16.77;14.77;;;;;;;18.19;89.08;100764.31;5086752;28;20155;-76
2023/09/11 04:10:56;;;;;;;15.57;13.85;;;;;;;18.16;88.79;100764.59;5068208;28;20127;-75
2023/09/11 04:13:23;;;;;;;20.10;15.27;;;;;;;18.15;89.17;100762.06;5070975;28;20082;-76
2023/09/11 04:15:51;;;;;;;23.92;15.30;;;;;;;18.12;89.59;100765.00;5066899;28;20159;-76
2023/09/11 04:18:18;;;;;;;20.02;15.27;;;;;;;18.10;89.45;100759.81;5069381;28;20047;-76
2023/09/11 04:20:47;;;;;;;20.35;14.88;;;;;;;18.08;89.89;100767.06;5070634;28;20703;-75
2023/09/11 04:23:15;;;;;;;19.67;15.68;;;;;;;18.05;91.55;100759.34;5073798;28;20044;-75
2023/09/11 04:25:45;;;;;;;23.08;15.10;;;;;;;18.02;90.68;100756.97;5046233;28;20090;-77
2023/09/11 04:28:12;;;;;;;18.23;14.25;;;;;;;18.00;91.30;100755.41;5041201;28;22218;-77
2023/09/11 04:30:40;;;;;;;16.90;15.10;;;;;;;17.95;91.36;100761.97;5067325;28;20097;-75
2023/09/11 04:33:07;;;;;;;20.73;14.38;;;;;;;17.91;91.47;100760.56;5062604;28;20634;-78
2023/09/11 04:35:34;;;;;;;22.48;15.48;;;;;;;17.88;92.99;100755.53;5069238;28;20048;-76
2023/09/11 04:38:02;;;;;;;18.92;15.32;;;;;;;17.86;92.83;100762.78;5068657;28;20706;-75
2023/09/11 04:40:29;;;;;;;22.63;15.10;;;;;;;17.87;92.80;100760.97;5069690;28;20080;-75
2023/09/11 04:42:57;;;;;;;18.23;14.73;;;;;;;17.84;92.90;100762.09;5050178;28;21349;-74
2023/09/11 04:45:24;;;;;;;18.33;15.30;;;;;;;17.82;93.93;100766.69;5048400;28;20048;-74
2023/09/11 04:47:51;;;;;;;26.90;16.90;;;;;;;17.77;96.06;100765.41;5079791;28;20176;-76
2023/09/11 04:50:19;;;;;;;21.77;16.75;;;;;;;17.78;95.95;100764.44;5068908;28;20059;-76
2023/09/11 04:56:28;;;;;;;19.65;15.77;;;;;;;17.84;96.66;100767.41;5076668;28;20055;-72
2023/09/11 04:58:55;;;;;;;24.88;17.10;;;;;;;17.91;95.80;100773.03;5045816;28;20746;-75
2023/09/11 05:01:22;;;;;;;21.50;16.35;;;;;;;17.96;95.75;100768.97;5082883;28;20613;-76
2023/09/11 05:03:49;;;;;;;22.90;17.25;;;;;;;18.00;95.39;100764.22;5048992;28;20226;-76
2023/09/11 05:06:17;;;;;;;25.25;17.75;;;;;;;18.06;96.29;100765.53;5049398;28;20151;-76
2023/09/11 05:08:44;;;;;;;21.92;16.27;;;;;;;18.11;95.97;100765.97;5065644;28;20079;-75
2023/09/11 05:11:32;;;;;;;24.73;15.68;;;;;;;18.16;96.05;100763.75;5071215;28;20083;-74
2023/09/11 05:13:59;;;;;;;25.75;17.65;;;;;;;18.23;95.38;100765.69;5051848;28;20058;-76
2023/09/11 05:16:26;;;;;;;22.13;17.75;;;;;;;18.31;94.92;100756.19;5047650;28;20456;-75
2023/09/11 05:18:54;;;;;;;20.15;16.58;;;;;;;18.38;94.54;100760.84;5066201;28;20055;-75
2023/09/11 05:21:21;;;;;;;24.73;16.35;;;;;;;18.42;93.99;100767.59;5066758;28;20407;-76
2023/09/11 05:23:48;;;;;;;22.05;16.98;;;;;;;18.51;93.76;100767.72;5071196;28;20450;-76
2023/09/11 05:26:16;;;;;;;22.52;18.35;;;;;;;18.56;93.27;100771.69;5036193;28;20076;-75
2023/09/11 05:28:43;;;;;;;25.33;18.13;;;;;;;18.64;93.44;100768.31;5071279;28;20055;-77
2023/09/11 05:31:10;;;;;;;19.23;15.55;;;;;;;18.76;92.63;100767.22;5050915;28;20063;-77
2023/09/11 05:33:38;;;;;;;20.98;15.75;;;;;;;18.89;92.00;100767.78;5068088;28;20044;-75
2023/09/11 05:36:06;;;;;;;20.70;15.60;;;;;;;19.00;91.20;100769.47;5070293;28;20131;-76
2023/09/11 05:38:33;;;;;;;26.92;17.13;;;;;;;19.10;90.49;100764.97;5088873;28;20123;-76
2023/09/11 05:41:01;;;;;;;18.85;16.35;;;;;;;19.23;89.78;100778.88;5052623;28;20127;-76
2023/09/11 05:43:28;;;;;;;40.83;19.30;;;;;;;19.33;88.98;100764.69;5071198;28;20040;-77
2023/09/11 05:45:56;;;;;;;22.70;17.55;;;;;;;19.39;88.67;100770.25;5065979;28;20672;-76
2023/09/11 05:48:23;;;;;;;22.88;16.75;;;;;;;19.52;87.86;100771.78;5071538;28;20127;-77
2023/09/11 05:50:53;;;;;;;24.55;17.73;;;;;;;19.61;87.05;100778.97;5053722;28;20048;-76
2023/09/11 05:53:21;;;;;;;23.77;18.33;;;;;;;19.69;86.52;100768.41;5049749;28;20127;-76
2023/09/11 05:55:48;;;;;;;21.77;17.80;;;;;;;19.74;85.88;100768.81;5072094;28;20131;-76
2023/09/11 05:58:15;;;;;;;31.23;18.50;;;;;;;19.81;85.69;100767.22;5088543;28;20079;-77
2023/09/11 06:00:43;;;;;;;29.83;18.80;;;;;;;19.88;85.15;100771.00;5064748;28;20080;-76
2023/09/11 06:03:10;;;;;;;27.02;17.95;;;;;;;19.90;85.24;100768.16;5072194;28;20134;-76
2023/09/11 06:05:39;;;;;;;34.72;18.60;;;;;;;19.93;85.18;100770.53;5084253;28;20083;-76
2023/09/11 06:08:07;;;;;;;42.53;21.00;;;;;;;19.94;85.03;100769.56;5072321;28;20712;-75
2023/09/11 06:10:35;;;;;;;34.47;19.70;;;;;;;19.99;85.08;100780.63;5048452;28;20131;-77
2023/09/11 06:13:03;;;;;;;35.17;22.33;;;;;;;20.04;84.94;100769.50;5071185;28;20051;-77
2023/09/11 06:15:30;;;;;;;34.90;19.13;;;;;;;20.17;84.67;100772.66;5068154;28;20091;-77
2023/09/11 06:17:57;;;;;;;31.55;20.17;;;;;;;20.27;83.65;100781.50;5072477;28;20129;-77
2023/09/11 06:20:25;;;;;;;27.02;19.35;;;;;;;20.40;82.65;100773.97;5067779;28;20052;-75
2023/09/11 06:22:52;;;;;;;27.88;20.25;;;;;;;20.50;81.92;100781.97;5090214;28;20055;-76
2023/09/11 06:25:19;;;;;;;34.88;22.33;;;;;;;20.56;81.29;100777.81;5053723;28;20435;-75
2023/09/11 06:27:47;;;;;;;32.58;20.67;;;;;;;20.54;80.72;100775.31;5072204;28;20067;-78
2023/09/11 06:30:14;;;;;;;29.55;18.55;;;;;;;20.58;80.62;100779.38;5067778;28;20126;-76
2023/09/11 06:32:42;;;;;;;26.98;20.80;;;;;;;20.73;79.49;100769.81;5069431;28;20448;-75
2023/09/11 06:35:10;;;;;;;24.00;17.95;;;;;;;20.71;79.19;100774.50;5048115;28;20142;-76
2023/09/11 06:37:37;;;;;;;23.00;18.02;;;;;;;20.85;78.75;100765.09;5067175;28;20115;-75
2023/09/11 06:40:09;;;;;;;24.08;16.80;;;;;;;20.96;76.85;100772.03;5068312;28;20453;-77
2023/09/11 06:42:37;;;;;;;21.67;16.15;;;;;;;21.10;76.13;100773.31;5067933;28;20560;-76
2023/09/11 06:45:04;;;;;;;23.40;16.08;;;;;;;21.26;74.79;100778.81;5054419;28;20032;-77
2023/09/11 06:47:32;;;;;;;32.35;17.30;;;;;;;21.34;73.63;100773.53;5055259;28;20075;-77
2023/09/11 06:50:00;;;;;;;24.70;15.73;;;;;;;21.39;72.92;100771.25;5050162;28;20149;-76
2023/09/11 06:52:27;;;;;;;19.95;14.65;;;;;;;21.53;72.52;100768.97;5070355;28;20101;-76
2023/09/11 06:54:54;;;;;;;21.42;14.52;;;;;;;21.66;71.91;100770.25;5052406;28;20052;-76
2023/09/11 06:57:22;;;;;;;19.08;14.77;;;;;;;21.87;71.58;100774.34;5068955;28;20696;-77
2023/09/11 06:59:52;;;;;;;23.83;16.23;;;;;;;22.01;70.31;100773.75;5065811;28;20064;-76
2023/09/11 07:02:20;;;;;;;20.00;15.88;;;;;;;22.01;69.53;100773.75;5069201;28;20052;-77
2023/09/11 07:04:47;;;;;;;22.20;14.57;;;;;;;22.13;69.45;100771.66;5067660;28;20071;-76
2023/09/11 07:07:15;;;;;;;18.83;14.10;;;;;;;22.13;69.21;100764.44;5048635;28;20152;-78
2023/09/11 07:09:42;;;;;;;19.35;13.50;;;;;;;22.32;67.86;100770.53;5056043;28;20058;-77
2023/09/11 07:12:09;;;;;;;18.48;12.93;;;;;;;22.47;67.63;100768.91;5086864;28;20127;-77
2023/09/11 07:14:37;;;;;;;18.00;11.30;;;;;;;22.60;65.80;100771.94;5060918;28;20080;-75
2023/09/11 07:17:04;;;;;;;20.92;11.85;;;;;;;22.71;65.02;100777.00;5069613;28;20079;-76
2023/09/11 07:19:32;;;;;;;25.80;12.43;;;;;;;22.85;64.74;100772.00;5068887;28;20138;-77
2023/09/11 07:21:59;;;;;;;16.85;12.55;;;;;;;22.92;64.37;100765.81;5049610;28;20071;-76
2023/09/11 07:24:26;;;;;;;20.58;10.93;;;;;;;22.98;63.94;100772.38;5052125;28;20075;-79
2023/09/11 07:26:54;;;;;;;16.17;10.50;;;;;;;23.11;62.88;100770.03;5069011;28;20474;-78
2023/09/11 07:29:26;;;;;;;17.75;11.15;;;;;;;23.25;62.35;100772.03;5052313;28;20151;-77
2023/09/11 07:31:53;;;;;;;27.92;12.70;;;;;;;23.26;61.92;100767.47;5069577;28;20452;-79
2023/09/11 07:34:21;;;;;;;21.80;11.55;;;;;;;23.37;61.72;100774.34;5069532;28;20128;-79
2023/09/11 07:36:48;;;;;;;13.93;9.82;;;;;;;23.41;61.58;100778.38;5067618;28;20506;-80
2023/09/11 07:39:15;;;;;;;13.63;9.98;;;;;;;23.43;60.74;100777.19;5051084;28;20139;-77
2023/09/11 07:41:43;;;;;;;19.80;9.90;;;;;;;23.62;60.64;100776.00;5088248;28;20158;-78
2023/09/11 07:44:10;;;;;;;18.63;10.38;;;;;;;23.77;59.93;100775.31;5088025;28;20044;-76
2023/09/11 07:46:38;;;;;;;20.52;9.55;;;;;;;23.94;59.23;100771.56;5051491;28;20067;-75
2023/09/11 07:49:05;;;;;;;17.05;10.15;;;;;;;23.93;58.56;100772.56;5053563;28;20372;-77
2023/09/11 07:51:33;;;;;;;13.70;8.38;;;;;;;24.04;57.42;100771.34;5090744;28;20052;-76
2023/09/11 07:54:00;;;;;;;10.10;8.35;;;;;;;24.14;56.77;100770.13;5073309;28;20163;-77
2023/09/11 07:56:28;;;;;;;12.90;8.55;;;;;;;24.27;56.04;100764.16;5070629;28;20059;-77
2023/09/11 07:58:55;;;;;;;24.15;7.82;;;;;;;24.26;55.74;100763.34;5057209;28;20044;-77
2023/09/11 08:01:22;;;;;;;16.25;7.53;;;;;;;24.39;54.83;100773.56;5071496;28;20063;-77
2023/09/11 08:03:50;;;;;;;9.75;7.70;;;;;;;24.52;54.14;100775.69;5057336;28;20580;-78
2023/09/11 08:06:20;;;;;;;17.13;8.30;;;;;;;24.60;54.47;100767.56;5070250;28;20062;-79
2023/09/11 08:08:48;;;;;;;10.07;6.97;;;;;;;24.82;53.88;100768.59;5056407;28;20052;-79
2023/09/11 08:11:18;;;;;;;12.55;8.02;;;;;;;24.78;53.69;100777.19;5039636;28;20131;-78
2023/09/11 08:13:46;;;;;;;10.73;7.38;;;;;;;24.97;53.14;100765.94;5072154;28;20079;-79
2023/09/11 08:16:15;;;;;;;9.88;7.25;;;;;;;25.08;52.25;100762.00;5074850;28;20147;-79
2023/09/11 08:18:43;;;;;;;12.52;7.43;;;;;;;25.29;52.02;100766.69;5053096;28;20068;-79
2023/09/11 08:21:12;;;;;;;11.27;7.22;;;;;;;25.48;51.25;100768.84;5054834;28;20144;-75
2023/09/11 08:23:43;;;;;;;12.40;7.07;;;;;;;25.56;50.57;100763.38;5058157;28;20416;-77
2023/09/11 08:26:11;;;;;;;9.55;6.80;;;;;;;25.67;50.82;100771.03;5056682;28;20076;-76
2023/09/11 08:28:40;;;;;;;10.98;6.82;;;;;;;25.80;50.52;100769.56;5054973;28;20095;-79
2023/09/11 08:31:07;;;;;;;15.35;7.85;;;;;;;25.86;49.67;100772.34;5091399;28;20087;-78
2023/09/11 08:33:35;;;;;;;13.32;6.85;;;;;;;26.06;49.56;100766.38;5056375;28;20135;-80
2023/09/11 08:36:20;;;;;;;;;;;;;;;26.12;48.61;100762.94;5070168;28;20052;-79
2023/09/11 08:38:47;;;;;;;12.02;7.20;;;;;;;26.14;49.24;100763.59;5084635;28;20551;-78
2023/09/11 08:41:17;;;;;;;13.98;6.47;;;;;;;26.24;48.55;100764.94;5087347;28;20148;-81
2023/09/11 08:43:44;;;;;;;15.05;6.70;;;;;;;26.35;47.77;100760.09;5070427;28;20542;-80
2023/09/11 08:46:17;;;;;;;12.63;7.13;;;;;;;26.38;47.04;100759.72;5054934;28;20506;-80
2023/09/11 08:48:48;;;;;;;15.57;7.43;;;;;;;26.46;46.03;100757.75;5068957;28;20084;-80
2023/09/11 08:51:49;;;;;;;14.27;6.30;;;;;;;26.49;46.34;100759.25;5059604;28;20051;-81
2023/09/11 08:54:16;;;;;;;12.30;6.75;;;;;;;26.55;45.71;100766.59;5029008;28;20052;-76
2023/09/11 08:56:44;;;;;;;15.77;7.22;;;;;;;26.50;46.79;100766.31;5031643;28;20080;-79
2023/09/11 08:59:15;;;;;;;11.77;6.80;;;;;;;26.77;46.09;100762.88;5070741;28;20461;-74
2023/09/11 09:01:43;;;;;;;16.55;6.90;;;;;;;26.98;45.04;100759.31;5066404;28;20097;-80
2023/09/11 09:04:12;;;;;;;13.32;6.97;;;;;;;27.17;45.38;100765.97;5069177;28;20506;-81
2023/09/11 09:06:39;;;;;;;12.57;6.13;;;;;;;27.23;44.95;100769.72;5049613;28;20843;-79
2023/09/11 09:09:07;;;;;;;15.35;7.15;;;;;;;27.38;44.01;100769.63;5066996;28;20552;-80
2023/09/11 09:11:34;;;;;;;13.52;6.95;;;;;;;27.41;44.48;100775.50;5039158;28;20079;-80
2023/09/11 09:14:05;;;;;;;11.48;6.65;;;;;;;27.58;43.56;100767.91;5052746;28;20154;-77
2023/09/11 09:16:33;;;;;;;11.43;5.70;;;;;;;27.82;43.41;100768.50;5088157;28;20090;-77
2023/09/11 09:19:01;;;;;;;8.68;7.80;;;;;;;28.01;42.93;100756.97;5072089;28;20575;-78
2023/09/11 09:21:29;;;;;;;11.10;7.30;;;;;;;28.05;42.57;100763.59;5049290;28;21042;-82
2023/09/11 09:24:09;;;;;;;12.50;5.70;;;;;;;28.10;41.77;100761.16;5068506;28;20059;-78
2023/09/11 09:26:56;;;;;;;8.70;6.55;;;;;;;28.11;42.04;100751.16;5036197;28;20075;-80
2023/09/11 09:29:24;;;;;;;7.57;6.38;;;;;;;28.26;41.26;100749.94;5071055;28;20092;-79
2023/09/11 09:31:52;;;;;;;10.73;6.38;;;;;;;28.46;41.20;100751.91;5051628;28;20397;-79
2023/09/11 09:34:19;;;;;;;12.32;5.88;;;;;;;28.62;40.29;100756.13;5068653;28;20529;-78
2023/09/11 09:36:54;;;;;;;14.05;6.15;;;;;;;28.65;39.07;100745.72;5051545;28;20055;-78
2023/09/11 09:39:24;;;;;;;9.18;6.13;;;;;;;28.49;39.41;100746.09;5051109;28;20062;-78
2023/09/11 09:41:57;;;;;;;10.65;6.60;;;;;;;28.55;39.96;100736.31;5036376;28;20131;-78
2023/09/11 09:44:35;;;;;;;13.25;6.15;;;;;;;28.77;39.97;100735.09;5051658;28;20076;-80
2023/09/11 09:47:13;;;;;;;7.75;6.18;;;;;;;28.92;39.84;100729.50;5054781;28;20047;-78
2023/09/11 09:49:50;;;;;;;10.32;6.53;;;;;;;29.08;39.94;100731.78;5071191;28;20047;-80
2023/09/11 09:52:19;;;;;;;6.25;5.45;;;;;;;29.22;39.00;100722.59;5053433;28;20079;-78
2023/09/11 09:55:02;;;;;;;7.07;6.03;;;;;;;29.07;39.46;100724.72;5053850;28;20119;-82
2023/09/11 09:57:29;;;;;;;9.45;5.47;;;;;;;29.12;39.68;100716.78;5063233;28;20061;-80
2023/09/11 09:59:58;;;;;;;8.77;5.15;;;;;;;29.21;39.07;100717.41;5052867;28;20056;-81
2023/09/11 10:02:34;;;;;;;12.88;5.60;;;;;;;29.34;38.35;100716.56;5052564;28;20052;-81
2023/09/11 10:05:07;;;;;;;11.60;6.55;;;;;;;29.50;38.35;100707.97;5034008;28;20048;-81
2023/09/11 10:07:37;;;;;;;12.45;6.35;;;;;;;29.43;38.35;100699.00;5086753;28;20054;-81
2023/09/11 10:10:29;;;;;;;13.02;5.72;;;;;;;29.64;38.37;100706.09;5087020;28;20040;-83
2023/09/11 10:13:00;;;;;;;11.90;6.63;;;;;;;29.72;37.99;100701.25;5058056;28;20052;-76
2023/09/11 10:15:29;;;;;;;10.13;5.80;;;;;;;29.94;38.13;100698.22;5094290;28;20143;-80
2023/09/11 10:17:56;;;;;;;6.25;5.45;;;;;;;30.18;38.60;100693.97;5074736;28;20102;-81
2023/09/11 10:20:24;;;;;;;10.88;6.18;;;;;;;30.29;37.85;100693.28;5075060;28;20570;-80
2023/09/11 10:23:41;;;;;;;9.93;5.55;;;;;;;29.88;38.56;100690.97;5072587;28;20131;-80
2023/09/11 10:27:01;;;;;;;17.17;6.28;;;;;;;30.13;38.04;100686.47;5093210;28;20051;-80
2023/09/11 10:29:51;;;;;;;7.18;5.75;;;;;;;30.11;37.89;100679.56;5055373;28;20058;-81
2023/09/11 10:32:24;;;;;;;11.55;6.07;;;;;;;30.36;38.29;100685.94;5076496;28;20078;-83
2023/09/11 10:34:51;;;;;;;13.00;6.40;;;;;;;30.42;37.54;100686.94;5057599;28;20560;-77
2023/09/11 10:37:20;;;;;;;8.25;5.68;;;;;;;30.50;37.60;100681.22;5058027;28;20143;-80
2023/09/11 10:39:49;;;;;;;11.07;6.82;;;;;;;30.27;37.48;100673.66;5075573;28;20071;-82
2023/09/11 10:42:16;;;;;;;12.20;6.53;;;;;;;30.20;38.08;100683.72;5055151;28;20083;-80
2023/09/11 10:44:44;;;;;;;12.88;6.63;;;;;;;30.41;37.42;100674.41;5056578;28;20076;-82
2023/09/11 10:47:11;;;;;;;8.82;6.00;;;;;;;30.45;37.43;100679.19;5088886;28;20086;-81
2023/09/11 10:49:41;;;;;;;9.65;6.35;;;;;;;30.78;37.24;100669.97;5056178;28;20152;-79
2023/09/11 10:52:09;;;;;;;13.73;6.75;;;;;;;30.88;36.58;100673.00;5090526;28;20436;-80
2023/09/11 10:54:36;;;;;;;13.48;5.78;;;;;;;31.12;36.60;100668.59;5057865;28;20151;-83
2023/09/11 10:57:04;;;;;;;9.82;6.72;;;;;;;31.38;36.66;100672.13;5070827;28;20083;-80
2023/09/11 10:59:32;;;;;;;10.20;6.22;;;;;;;31.47;34.45;100668.88;5076119;28;20489;-79
2023/09/11 11:01:59;;;;;;;11.20;6.78;;;;;;;31.24;34.54;100669.50;5059975;28;20043;-79
2023/09/11 11:04:31;;;;;;;12.68;7.03;;;;;;;31.14;34.74;100665.66;5054551;28;20075;-79
2023/09/11 11:06:59;;;;;;;12.00;6.78;;;;;;;31.30;35.20;100658.81;5069771;28;20101;-76
2023/09/11 11:09:31;;;;;;;9.30;6.50;;;;;;;31.54;35.52;100655.19;5066177;28;20139;-82
2023/09/11 11:12:06;;;;;;;8.38;5.43;;;;;;;31.72;34.91;100646.19;5059372;28;20047;-82
2023/09/11 11:14:33;;;;;;;16.65;7.32;;;;;;;31.25;34.76;100651.28;5071940;28;20101;-78
2023/09/11 11:17:10;;;;;;;11.27;7.07;;;;;;;31.13;35.23;100651.22;5054997;28;20571;-83
2023/09/11 11:19:59;;;;;;;14.80;5.82;;;;;;;31.06;35.51;100657.78;5044703;28;20044;-81
2023/09/11 11:22:34;;;;;;;9.93;5.63;;;;;;;31.29;34.69;100655.25;5080571;28;20147;-78
2023/09/11 11:25:05;;;;;;;13.10;6.35;;;;;;;31.52;34.50;100646.41;5083421;28;20131;-81
2023/09/11 11:27:32;;;;;;;13.95;5.97;;;;;;;31.81;34.18;100643.97;5036528;28;20087;-78